sensor_id;sensor_type;location;lat;lon;timestamp;temperature;humidity
17387;DHT22;8811;52.398;9.728;2022-08-01T00:01:38;19.90;99.90
17387;DHT22;8811;52.398;9.728;2022-08-01T00:06:34;20.00;99.90
17387;DHT22;8811;52.398;9.728;2022-08-01T00:09:01;20.00;99.90
17387;DHT22;8811;52.398;9.728;2022-08-01T00:11:29;20.00;99.90
17387;DHT22;8811;52.398;9.728;2022-08-01T00:13:58;19.90;99.90
17387;DHT22;8811;52.398;9.728;2022-08-01T00:18:53;19.90;99.90
17387;DHT22;8811;52.398;9.728;2022-08-01T00:21:21;19.90;99.90
17387;DHT22;8811;52.398;9.728;2022-08-01T00:26:16;20.00;99.90
17387;DHT22;8811;52.398;9.728;2022-08-01T00:28:43;19.90;99.90
17387;DHT22;8811;52.398;9.728;2022-08-01T00:31:12;20.00;99.90
17387;DHT22;8811;52.398;9.728;2022-08-01T00:36:07;20.00;99.90
17387;DHT22;8811;52.398;9.728;2022-08-01T00:38:35;20.00;99.90
17387;DHT22;8811;52.398;9.728;2022-08-01T00:43:30;19.90;99.90
17387;DHT22;8811;52.398;9.728;2022-08-01T00:45:57;20.00;99.90
17387;DHT22;8811;52.398;9.728;2022-08-01T00:48:26;19.90;99.90
17387;DHT22;8811;52.398;9.728;2022-08-01T00:55:49;19.90;99.90
17387;DHT22;8811;52.398;9.728;2022-08-01T00:58:16;19.90;99.90
17387;DHT22;8811;52.398;9.728;2022-08-01T01:03:12;19.90;99.90
17387;DHT22;8811;52.398;9.728;2022-08-01T01:05:48;19.90;99.90
17387;DHT22;8811;52.398;9.728;2022-08-01T01:08:24;19.90;99.90
17387;DHT22;8811;52.398;9.728;2022-08-01T01:10:57;19.90;99.90
17387;DHT22;8811;52.398;9.728;2022-08-01T01:13:35;19.90;99.90
17387;DHT22;8811;52.398;9.728;2022-08-01T01:16:08;19.90;99.90
17387;DHT22;8811;52.398;9.728;2022-08-01T01:18:41;19.90;99.90
17387;DHT22;8811;52.398;9.728;2022-08-01T01:24:18;19.80;99.90
17387;DHT22;8811;52.398;9.728;2022-08-01T01:26:53;19.90;99.90
17387;DHT22;8811;52.398;9.728;2022-08-01T01:29:28;19.90;99.90
17387;DHT22;8811;52.398;9.728;2022-08-01T01:32:02;19.90;99.90
17387;DHT22;8811;52.398;9.728;2022-08-01T01:34:34;19.90;99.90
17387;DHT22;8811;52.398;9.728;2022-08-01T01:37:04;19.80;99.90
17387;DHT22;8811;52.398;9.728;2022-08-01T01:39:35;19.80;99.90
17387;DHT22;8811;52.398;9.728;2022-08-01T01:42:05;19.80;99.90
17387;DHT22;8811;52.398;9.728;2022-08-01T01:44:36;19.80;99.90
17387;DHT22;8811;52.398;9.728;2022-08-01T01:47:04;19.80;99.90
17387;DHT22;8811;52.398;9.728;2022-08-01T01:49:33;19.80;99.90
17387;DHT22;8811;52.398;9.728;2022-08-01T01:52:02;19.80;99.90
17387;DHT22;8811;52.398;9.728;2022-08-01T01:54:32;19.80;99.90
17387;DHT22;8811;52.398;9.728;2022-08-01T01:57:02;19.80;99.90
17387;DHT22;8811;52.398;9.728;2022-08-01T01:59:34;19.70;99.90
17387;DHT22;8811;52.398;9.728;2022-08-01T02:02:04;19.70;99.90
17387;DHT22;8811;52.398;9.728;2022-08-01T02:04:33;19.70;99.90
17387;DHT22;8811;52.398;9.728;2022-08-01T02:07:03;19.70;99.90
17387;DHT22;8811;52.398;9.728;2022-08-01T02:09:31;19.70;99.90
17387;DHT22;8811;52.398;9.728;2022-08-01T02:11:59;19.70;99.90
17387;DHT22;8811;52.398;9.728;2022-08-01T02:14:28;19.60;99.90
17387;DHT22;8811;52.398;9.728;2022-08-01T02:16:58;19.60;99.90
17387;DHT22;8811;52.398;9.728;2022-08-01T02:19:29;19.60;99.90
17387;DHT22;8811;52.398;9.728;2022-08-01T02:22:01;19.60;99.90
17387;DHT22;8811;52.398;9.728;2022-08-01T02:24:34;19.60;99.90
17387;DHT22;8811;52.398;9.728;2022-08-01T02:27:08;19.60;99.90
17387;DHT22;8811;52.398;9.728;2022-08-01T02:29:39;19.60;99.90
17387;DHT22;8811;52.398;9.728;2022-08-01T02:32:11;19.60;99.90
17387;DHT22;8811;52.398;9.728;2022-08-01T02:34:39;19.60;99.90
17387;DHT22;8811;52.398;9.728;2022-08-01T02:37:09;19.60;99.90
17387;DHT22;8811;52.398;9.728;2022-08-01T02:39:37;19.50;99.90
17387;DHT22;8811;52.398;9.728;2022-08-01T02:42:08;19.50;99.90
17387;DHT22;8811;52.398;9.728;2022-08-01T02:44:39;19.50;99.90
17387;DHT22;8811;52.398;9.728;2022-08-01T02:47:10;19.50;99.90
17387;DHT22;8811;52.398;9.728;2022-08-01T02:49:42;19.50;99.90
17387;DHT22;8811;52.398;9.728;2022-08-01T02:52:13;19.50;99.90
17387;DHT22;8811;52.398;9.728;2022-08-01T02:54:42;19.50;99.90
17387;DHT22;8811;52.398;9.728;2022-08-01T02:57:11;19.50;99.90
17387;DHT22;8811;52.398;9.728;2022-08-01T02:59:40;19.50;99.90
17387;DHT22;8811;52.398;9.728;2022-08-01T03:02:10;19.50;99.90
17387;DHT22;8811;52.398;9.728;2022-08-01T03:04:40;19.50;99.90
17387;DHT22;8811;52.398;9.728;2022-08-01T03:07:10;19.50;99.90
17387;DHT22;8811;52.398;9.728;2022-08-01T03:09:41;19.50;99.90
17387;DHT22;8811;52.398;9.728;2022-08-01T03:12:12;19.40;99.90
17387;DHT22;8811;52.398;9.728;2022-08-01T03:14:42;19.40;99.90
17387;DHT22;8811;52.398;9.728;2022-08-01T03:17:11;19.30;99.90
17387;DHT22;8811;52.398;9.728;2022-08-01T03:19:39;19.40;99.90
17387;DHT22;8811;52.398;9.728;2022-08-01T03:22:09;19.40;99.90
17387;DHT22;8811;52.398;9.728;2022-08-01T03:24:39;19.40;99.90
17387;DHT22;8811;52.398;9.728;2022-08-01T03:27:08;19.40;99.90
17387;DHT22;8811;52.398;9.728;2022-08-01T03:29:37;19.40;99.90
17387;DHT22;8811;52.398;9.728;2022-08-01T03:32:06;19.50;99.90
17387;DHT22;8811;52.398;9.728;2022-08-01T03:34:35;19.40;99.90
17387;DHT22;8811;52.398;9.728;2022-08-01T03:37:06;19.50;99.90
17387;DHT22;8811;52.398;9.728;2022-08-01T03:39:46;19.50;99.90
17387;DHT22;8811;52.398;9.728;2022-08-01T03:42:17;19.50;99.90
17387;DHT22;8811;52.398;9.728;2022-08-01T03:44:48;19.50;99.90
17387;DHT22;8811;52.398;9.728;2022-08-01T03:47:18;19.50;99.90
17387;DHT22;8811;52.398;9.728;2022-08-01T03:49:48;19.50;99.90
17387;DHT22;8811;52.398;9.728;2022-08-01T03:52:18;19.50;99.90
17387;DHT22;8811;52.398;9.728;2022-08-01T03:54:47;19.40;99.90
17387;DHT22;8811;52.398;9.728;2022-08-01T03:57:17;19.40;99.90
17387;DHT22;8811;52.398;9.728;2022-08-01T03:59:46;19.40;99.90
17387;DHT22;8811;52.398;9.728;2022-08-01T04:02:14;19.50;99.90
17387;DHT22;8811;52.398;9.728;2022-08-01T04:04:43;19.40;99.90
17387;DHT22;8811;52.398;9.728;2022-08-01T04:07:23;19.30;99.90
17387;DHT22;8811;52.398;9.728;2022-08-01T04:09:50;19.40;99.90
17387;DHT22;8811;52.398;9.728;2022-08-01T04:12:18;19.40;99.90
17387;DHT22;8811;52.398;9.728;2022-08-01T04:14:46;19.40;99.90
17387;DHT22;8811;52.398;9.728;2022-08-01T04:17:14;19.40;99.90
17387;DHT22;8811;52.398;9.728;2022-08-01T04:22:10;19.40;99.90
17387;DHT22;8811;52.398;9.728;2022-08-01T04:24:41;19.40;99.90
17387;DHT22;8811;52.398;9.728;2022-08-01T04:27:13;19.40;99.90
17387;DHT22;8811;52.398;9.728;2022-08-01T04:29:42;19.40;99.90
17387;DHT22;8811;52.398;9.728;2022-08-01T04:32:12;19.30;99.90
17387;DHT22;8811;52.398;9.728;2022-08-01T04:34:42;19.40;99.90
17387;DHT22;8811;52.398;9.728;2022-08-01T04:37:13;19.50;99.90
17387;DHT22;8811;52.398;9.728;2022-08-01T04:39:44;19.50;99.90
17387;DHT22;8811;52.398;9.728;2022-08-01T04:42:14;19.50;99.90
17387;DHT22;8811;52.398;9.728;2022-08-01T04:47:10;19.50;99.90
17387;DHT22;8811;52.398;9.728;2022-08-01T04:49:40;19.60;99.90
17387;DHT22;8811;52.398;9.728;2022-08-01T04:52:07;19.60;99.90
17387;DHT22;8811;52.398;9.728;2022-08-01T04:54:35;19.60;99.90
17387;DHT22;8811;52.398;9.728;2022-08-01T04:57:05;19.60;99.90
17387;DHT22;8811;52.398;9.728;2022-08-01T04:59:35;19.60;99.90
17387;DHT22;8811;52.398;9.728;2022-08-01T05:02:08;19.60;99.90
17387;DHT22;8811;52.398;9.728;2022-08-01T05:04:37;19.60;99.90
17387;DHT22;8811;52.398;9.728;2022-08-01T05:07:06;19.70;99.90
17387;DHT22;8811;52.398;9.728;2022-08-01T05:09:34;19.70;99.90
17387;DHT22;8811;52.398;9.728;2022-08-01T05:12:02;19.70;99.90
17387;DHT22;8811;52.398;9.728;2022-08-01T05:14:33;19.70;99.90
17387;DHT22;8811;52.398;9.728;2022-08-01T05:17:01;19.70;99.90
17387;DHT22;8811;52.398;9.728;2022-08-01T05:19:30;19.70;99.90
17387;DHT22;8811;52.398;9.728;2022-08-01T05:21:57;19.70;99.90
17387;DHT22;8811;52.398;9.728;2022-08-01T05:24:26;19.80;99.90
17387;DHT22;8811;52.398;9.728;2022-08-01T05:26:55;19.80;99.90
17387;DHT22;8811;52.398;9.728;2022-08-01T05:29:22;19.80;99.90
17387;DHT22;8811;52.398;9.728;2022-08-01T05:31:51;19.80;99.90
17387;DHT22;8811;52.398;9.728;2022-08-01T05:34:20;19.90;99.90
17387;DHT22;8811;52.398;9.728;2022-08-01T05:36:47;19.90;99.90
17387;DHT22;8811;52.398;9.728;2022-08-01T05:39:14;19.90;99.90
17387;DHT22;8811;52.398;9.728;2022-08-01T05:41:42;19.90;99.90
17387;DHT22;8811;52.398;9.728;2022-08-01T05:44:09;19.80;99.90
17387;DHT22;8811;52.398;9.728;2022-08-01T05:46:37;19.80;99.90
17387;DHT22;8811;52.398;9.728;2022-08-01T05:49:06;19.90;99.90
17387;DHT22;8811;52.398;9.728;2022-08-01T05:51:33;19.90;99.90
17387;DHT22;8811;52.398;9.728;2022-08-01T05:54:01;19.90;99.90
17387;DHT22;8811;52.398;9.728;2022-08-01T05:56:30;19.90;99.90
17387;DHT22;8811;52.398;9.728;2022-08-01T05:58:58;19.90;99.90
17387;DHT22;8811;52.398;9.728;2022-08-01T06:01:25;20.00;99.90
17387;DHT22;8811;52.398;9.728;2022-08-01T06:03:52;20.10;99.90
17387;DHT22;8811;52.398;9.728;2022-08-01T06:06:21;20.10;99.90
17387;DHT22;8811;52.398;9.728;2022-08-01T06:11:17;20.20;99.90
17387;DHT22;8811;52.398;9.728;2022-08-01T06:13:45;20.20;99.90
17387;DHT22;8811;52.398;9.728;2022-08-01T06:16:13;20.20;99.90
17387;DHT22;8811;52.398;9.728;2022-08-01T06:18:43;20.20;99.90
17387;DHT22;8811;52.398;9.728;2022-08-01T06:21:13;20.30;99.90
17387;DHT22;8811;52.398;9.728;2022-08-01T06:23:42;20.40;99.90
17387;DHT22;8811;52.398;9.728;2022-08-01T06:26:11;20.40;99.90
17387;DHT22;8811;52.398;9.728;2022-08-01T06:28:39;20.40;99.90
17387;DHT22;8811;52.398;9.728;2022-08-01T06:31:06;20.40;99.90
17387;DHT22;8811;52.398;9.728;2022-08-01T06:33:35;20.30;99.90
17387;DHT22;8811;52.398;9.728;2022-08-01T06:36:03;20.20;99.90
17387;DHT22;8811;52.398;9.728;2022-08-01T06:38:31;20.20;99.90
17387;DHT22;8811;52.398;9.728;2022-08-01T06:41:00;20.20;99.90
17387;DHT22;8811;52.398;9.728;2022-08-01T06:43:28;20.20;99.90
17387;DHT22;8811;52.398;9.728;2022-08-01T06:45:55;20.30;99.90
17387;DHT22;8811;52.398;9.728;2022-08-01T06:48:25;20.40;99.90
17387;DHT22;8811;52.398;9.728;2022-08-01T06:50:54;20.60;99.90
17387;DHT22;8811;52.398;9.728;2022-08-01T06:53:35;20.80;99.90
17387;DHT22;8811;52.398;9.728;2022-08-01T06:56:05;20.90;99.90
17387;DHT22;8811;52.398;9.728;2022-08-01T06:58:34;21.00;99.90
17387;DHT22;8811;52.398;9.728;2022-08-01T07:01:04;21.20;99.90
17387;DHT22;8811;52.398;9.728;2022-08-01T07:03:34;21.20;99.90
17387;DHT22;8811;52.398;9.728;2022-08-01T07:06:03;21.20;99.90
17387;DHT22;8811;52.398;9.728;2022-08-01T07:08:34;21.30;99.90
17387;DHT22;8811;52.398;9.728;2022-08-01T07:11:03;21.30;99.90
17387;DHT22;8811;52.398;9.728;2022-08-01T07:13:31;21.50;99.90
17387;DHT22;8811;52.398;9.728;2022-08-01T07:16:02;21.60;99.90
17387;DHT22;8811;52.398;9.728;2022-08-01T07:18:29;21.60;99.90
17387;DHT22;8811;52.398;9.728;2022-08-01T07:20:58;21.70;99.90
17387;DHT22;8811;52.398;9.728;2022-08-01T07:23:28;21.80;99.90
17387;DHT22;8811;52.398;9.728;2022-08-01T07:25:56;21.90;99.90
17387;DHT22;8811;52.398;9.728;2022-08-01T07:28:33;21.80;99.90
17387;DHT22;8811;52.398;9.728;2022-08-01T07:31:03;21.80;99.90
17387;DHT22;8811;52.398;9.728;2022-08-01T07:33:33;21.90;99.90
17387;DHT22;8811;52.398;9.728;2022-08-01T07:36:02;21.90;99.90
17387;DHT22;8811;52.398;9.728;2022-08-01T07:38:34;21.90;99.90
17387;DHT22;8811;52.398;9.728;2022-08-01T07:41:04;21.90;99.90
17387;DHT22;8811;52.398;9.728;2022-08-01T07:43:40;21.90;99.90
17387;DHT22;8811;52.398;9.728;2022-08-01T07:46:13;21.70;99.90
17387;DHT22;8811;52.398;9.728;2022-08-01T07:48:45;21.50;99.90
17387;DHT22;8811;52.398;9.728;2022-08-01T07:51:26;21.40;99.90
17387;DHT22;8811;52.398;9.728;2022-08-01T07:53:55;21.40;99.90
17387;DHT22;8811;52.398;9.728;2022-08-01T07:56:27;21.30;99.90
17387;DHT22;8811;52.398;9.728;2022-08-01T07:58:56;21.30;99.90
17387;DHT22;8811;52.398;9.728;2022-08-01T08:01:25;21.30;99.90
17387;DHT22;8811;52.398;9.728;2022-08-01T08:03:54;21.20;99.90
17387;DHT22;8811;52.398;9.728;2022-08-01T08:06:24;21.20;99.90
17387;DHT22;8811;52.398;9.728;2022-08-01T08:08:54;21.20;99.90
17387;DHT22;8811;52.398;9.728;2022-08-01T08:11:23;21.20;99.90
17387;DHT22;8811;52.398;9.728;2022-08-01T08:13:50;21.10;99.90
17387;DHT22;8811;52.398;9.728;2022-08-01T08:16:20;21.20;99.90
17387;DHT22;8811;52.398;9.728;2022-08-01T08:18:48;21.10;99.90
17387;DHT22;8811;52.398;9.728;2022-08-01T08:21:16;21.10;99.90
17387;DHT22;8811;52.398;9.728;2022-08-01T08:23:43;21.30;99.90
17387;DHT22;8811;52.398;9.728;2022-08-01T08:26:33;21.40;99.90
17387;DHT22;8811;52.398;9.728;2022-08-01T08:29:00;21.60;99.90
17387;DHT22;8811;52.398;9.728;2022-08-01T08:31:29;21.60;99.90
17387;DHT22;8811;52.398;9.728;2022-08-01T08:33:58;21.80;99.90
17387;DHT22;8811;52.398;9.728;2022-08-01T08:36:26;21.90;99.90
17387;DHT22;8811;52.398;9.728;2022-08-01T08:38:54;21.90;99.90
17387;DHT22;8811;52.398;9.728;2022-08-01T08:41:22;22.10;99.90
17387;DHT22;8811;52.398;9.728;2022-08-01T08:43:49;22.40;99.90
17387;DHT22;8811;52.398;9.728;2022-08-01T08:46:19;22.80;99.90
17387;DHT22;8811;52.398;9.728;2022-08-01T08:48:53;23.00;99.90
17387;DHT22;8811;52.398;9.728;2022-08-01T08:51:23;23.00;99.90
17387;DHT22;8811;52.398;9.728;2022-08-01T08:53:55;23.10;99.90
17387;DHT22;8811;52.398;9.728;2022-08-01T08:56:25;23.10;99.90
17387;DHT22;8811;52.398;9.728;2022-08-01T08:58:57;23.00;99.90
17387;DHT22;8811;52.398;9.728;2022-08-01T09:01:27;22.90;99.90
17387;DHT22;8811;52.398;9.728;2022-08-01T09:04:00;22.80;99.90
17387;DHT22;8811;52.398;9.728;2022-08-01T09:06:27;22.80;99.90
17387;DHT22;8811;52.398;9.728;2022-08-01T09:08:57;22.80;99.90
17387;DHT22;8811;52.398;9.728;2022-08-01T09:11:25;22.80;99.90
17387;DHT22;8811;52.398;9.728;2022-08-01T09:14:06;22.70;99.90
17387;DHT22;8811;52.398;9.728;2022-08-01T09:16:36;22.70;99.90
17387;DHT22;8811;52.398;9.728;2022-08-01T09:19:13;22.70;99.90
17387;DHT22;8811;52.398;9.728;2022-08-01T09:21:56;22.60;99.90
17387;DHT22;8811;52.398;9.728;2022-08-01T09:24:24;22.60;99.90
17387;DHT22;8811;52.398;9.728;2022-08-01T09:26:54;22.70;99.90
17387;DHT22;8811;52.398;9.728;2022-08-01T09:29:28;22.80;99.90
17387;DHT22;8811;52.398;9.728;2022-08-01T09:31:57;23.00;99.90
17387;DHT22;8811;52.398;9.728;2022-08-01T09:34:28;23.10;99.90
17387;DHT22;8811;52.398;9.728;2022-08-01T09:37:00;23.10;99.90
17387;DHT22;8811;52.398;9.728;2022-08-01T09:39:32;23.00;99.90
17387;DHT22;8811;52.398;9.728;2022-08-01T09:42:18;23.00;99.90
17387;DHT22;8811;52.398;9.728;2022-08-01T09:44:47;23.00;99.90
17387;DHT22;8811;52.398;9.728;2022-08-01T09:47:15;23.10;99.90
17387;DHT22;8811;52.398;9.728;2022-08-01T09:49:45;23.20;99.90
17387;DHT22;8811;52.398;9.728;2022-08-01T09:52:27;23.50;99.90
17387;DHT22;8811;52.398;9.728;2022-08-01T09:55:06;23.70;99.90
17387;DHT22;8811;52.398;9.728;2022-08-01T09:57:34;23.70;99.90
17387;DHT22;8811;52.398;9.728;2022-08-01T10:00:05;24.00;99.90
17387;DHT22;8811;52.398;9.728;2022-08-01T10:02:39;24.00;99.90
17387;DHT22;8811;52.398;9.728;2022-08-01T10:05:34;24.00;99.90
17387;DHT22;8811;52.398;9.728;2022-08-01T10:08:05;23.70;99.90
17387;DHT22;8811;52.398;9.728;2022-08-01T10:10:34;23.50;99.90
17387;DHT22;8811;52.398;9.728;2022-08-01T10:13:04;23.40;99.90
17387;DHT22;8811;52.398;9.728;2022-08-01T10:15:35;23.20;99.90
17387;DHT22;8811;52.398;9.728;2022-08-01T10:18:07;22.90;99.90
17387;DHT22;8811;52.398;9.728;2022-08-01T10:20:47;22.90;99.90
17387;DHT22;8811;52.398;9.728;2022-08-01T10:23:15;22.90;99.90
17387;DHT22;8811;52.398;9.728;2022-08-01T10:25:49;22.60;99.90
17387;DHT22;8811;52.398;9.728;2022-08-01T10:28:23;22.50;99.90
17387;DHT22;8811;52.398;9.728;2022-08-01T10:30:54;22.50;99.90
17387;DHT22;8811;52.398;9.728;2022-08-01T10:33:23;22.40;99.90
17387;DHT22;8811;52.398;9.728;2022-08-01T10:36:07;22.50;99.90
17387;DHT22;8811;52.398;9.728;2022-08-01T10:38:36;22.60;99.90
17387;DHT22;8811;52.398;9.728;2022-08-01T10:41:08;23.10;99.90
17387;DHT22;8811;52.398;9.728;2022-08-01T10:43:41;23.20;99.90
17387;DHT22;8811;52.398;9.728;2022-08-01T10:46:14;23.30;99.90
17387;DHT22;8811;52.398;9.728;2022-08-01T10:48:49;23.60;99.90
17387;DHT22;8811;52.398;9.728;2022-08-01T10:51:21;23.90;99.90
17387;DHT22;8811;52.398;9.728;2022-08-01T10:54:07;24.00;99.90
17387;DHT22;8811;52.398;9.728;2022-08-01T10:56:42;24.00;99.90
17387;DHT22;8811;52.398;9.728;2022-08-01T10:59:15;23.90;99.90
17387;DHT22;8811;52.398;9.728;2022-08-01T11:02:05;23.70;99.90
17387;DHT22;8811;52.398;9.728;2022-08-01T11:04:39;23.50;99.90
17387;DHT22;8811;52.398;9.728;2022-08-01T11:07:16;23.40;99.90
17387;DHT22;8811;52.398;9.728;2022-08-01T11:10:02;23.30;99.90
17387;DHT22;8811;52.398;9.728;2022-08-01T11:12:43;23.40;99.90
17387;DHT22;8811;52.398;9.728;2022-08-01T11:15:23;23.40;99.90
17387;DHT22;8811;52.398;9.728;2022-08-01T11:17:53;24.40;99.90
17387;DHT22;8811;52.398;9.728;2022-08-01T11:20:27;24.50;99.90
17387;DHT22;8811;52.398;9.728;2022-08-01T11:23:25;25.90;99.90
17387;DHT22;8811;52.398;9.728;2022-08-01T11:26:16;27.40;99.90
17387;DHT22;8811;52.398;9.728;2022-08-01T11:31:30;28.10;99.90
17387;DHT22;8811;52.398;9.728;2022-08-01T11:33:59;29.20;99.90
17387;DHT22;8811;52.398;9.728;2022-08-01T11:36:28;29.70;99.90
17387;DHT22;8811;52.398;9.728;2022-08-01T11:39:24;30.10;98.20
17387;DHT22;8811;52.398;9.728;2022-08-01T11:41:51;31.10;97.80
17387;DHT22;8811;52.398;9.728;2022-08-01T11:44:22;31.20;95.50
17387;DHT22;8811;52.398;9.728;2022-08-01T11:46:58;30.50;96.40
17387;DHT22;8811;52.398;9.728;2022-08-01T11:49:46;29.50;97.00
17387;DHT22;8811;52.398;9.728;2022-08-01T11:52:18;29.60;97.40
17387;DHT22;8811;52.398;9.728;2022-08-01T11:54:51;30.10;95.30
17387;DHT22;8811;52.398;9.728;2022-08-01T11:57:20;30.00;95.20
17387;DHT22;8811;52.398;9.728;2022-08-01T11:59:53;29.50;95.70
17387;DHT22;8811;52.398;9.728;2022-08-01T12:02:25;28.80;97.30
17387;DHT22;8811;52.398;9.728;2022-08-01T12:04:59;28.30;98.70
17387;DHT22;8811;52.398;9.728;2022-08-01T12:07:31;28.50;98.70
17387;DHT22;8811;52.398;9.728;2022-08-01T12:10:02;29.30;97.70
17387;DHT22;8811;52.398;9.728;2022-08-01T12:12:32;30.60;96.00
17387;DHT22;8811;52.398;9.728;2022-08-01T12:15:01;31.60;94.30
17387;DHT22;8811;52.398;9.728;2022-08-01T12:17:39;31.50;93.20
17387;DHT22;8811;52.398;9.728;2022-08-01T12:20:14;30.30;93.70
17387;DHT22;8811;52.398;9.728;2022-08-01T12:22:43;29.30;94.50
17387;DHT22;8811;52.398;9.728;2022-08-01T12:25:16;30.50;94.80
17387;DHT22;8811;52.398;9.728;2022-08-01T12:27:51;31.20;93.30
17387;DHT22;8811;52.398;9.728;2022-08-01T12:30:20;31.00;92.50
17387;DHT22;8811;52.398;9.728;2022-08-01T12:32:52;30.80;92.30
17387;DHT22;8811;52.398;9.728;2022-08-01T12:35:27;29.90;93.20
17387;DHT22;8811;52.398;9.728;2022-08-01T12:37:58;29.30;94.10
17387;DHT22;8811;52.398;9.728;2022-08-01T12:40:30;30.50;93.90
17387;DHT22;8811;52.398;9.728;2022-08-01T12:43:04;31.90;90.50
17387;DHT22;8811;52.398;9.728;2022-08-01T12:45:34;33.20;88.10
17387;DHT22;8811;52.398;9.728;2022-08-01T12:48:07;33.00;89.20
17387;DHT22;8811;52.398;9.728;2022-08-01T12:50:37;34.00;85.10
17387;DHT22;8811;52.398;9.728;2022-08-01T12:53:09;34.50;83.50
17387;DHT22;8811;52.398;9.728;2022-08-01T12:55:45;35.50;80.00
17387;DHT22;8811;52.398;9.728;2022-08-01T12:58:14;36.20;78.00
17387;DHT22;8811;52.398;9.728;2022-08-01T13:00:49;35.30;76.80
17387;DHT22;8811;52.398;9.728;2022-08-01T13:03:20;33.30;80.10
17387;DHT22;8811;52.398;9.728;2022-08-01T13:05:50;32.20;82.00
17387;DHT22;8811;52.398;9.728;2022-08-01T13:08:23;31.80;85.80
17387;DHT22;8811;52.398;9.728;2022-08-01T13:11:00;32.40;83.40
17387;DHT22;8811;52.398;9.728;2022-08-01T13:13:38;32.50;83.40
17387;DHT22;8811;52.398;9.728;2022-08-01T13:16:09;32.80;82.20
17387;DHT22;8811;52.398;9.728;2022-08-01T13:18:37;31.60;83.30
17387;DHT22;8811;52.398;9.728;2022-08-01T13:21:17;30.50;86.80
17387;DHT22;8811;52.398;9.728;2022-08-01T13:24:08;29.50;89.00
17387;DHT22;8811;52.398;9.728;2022-08-01T13:27:20;28.50;90.60
17387;DHT22;8811;52.398;9.728;2022-08-01T13:29:53;28.40;91.00
17387;DHT22;8811;52.398;9.728;2022-08-01T13:32:30;28.00;90.60
17387;DHT22;8811;52.398;9.728;2022-08-01T13:35:02;27.00;92.90
17387;DHT22;8811;52.398;9.728;2022-08-01T13:37:30;26.90;92.90
17387;DHT22;8811;52.398;9.728;2022-08-01T13:39:58;27.10;93.20
17387;DHT22;8811;52.398;9.728;2022-08-01T13:42:34;28.00;92.80
17387;DHT22;8811;52.398;9.728;2022-08-01T13:45:08;28.50;91.70
17387;DHT22;8811;52.398;9.728;2022-08-01T13:47:38;29.10;90.40
17387;DHT22;8811;52.398;9.728;2022-08-01T13:50:07;29.10;90.70
17387;DHT22;8811;52.398;9.728;2022-08-01T13:52:35;29.40;91.90
17387;DHT22;8811;52.398;9.728;2022-08-01T13:55:04;28.60;91.00
17387;DHT22;8811;52.398;9.728;2022-08-01T13:57:35;28.30;92.10
17387;DHT22;8811;52.398;9.728;2022-08-01T14:00:11;27.70;90.80
17387;DHT22;8811;52.398;9.728;2022-08-01T14:02:44;27.40;92.70
17387;DHT22;8811;52.398;9.728;2022-08-01T14:05:12;27.10;92.80
17387;DHT22;8811;52.398;9.728;2022-08-01T14:07:47;26.80;93.20
17387;DHT22;8811;52.398;9.728;2022-08-01T14:10:18;26.50;93.30
17387;DHT22;8811;52.398;9.728;2022-08-01T14:12:47;26.60;94.30
17387;DHT22;8811;52.398;9.728;2022-08-01T14:15:17;26.80;94.30
17387;DHT22;8811;52.398;9.728;2022-08-01T14:17:49;26.80;94.30
17387;DHT22;8811;52.398;9.728;2022-08-01T14:20:19;26.80;93.60
17387;DHT22;8811;52.398;9.728;2022-08-01T14:22:49;26.80;93.60
17387;DHT22;8811;52.398;9.728;2022-08-01T14:25:20;26.90;93.80
17387;DHT22;8811;52.398;9.728;2022-08-01T14:27:49;27.10;93.70
17387;DHT22;8811;52.398;9.728;2022-08-01T14:30:20;27.30;93.40
17387;DHT22;8811;52.398;9.728;2022-08-01T14:32:48;27.60;92.80
17387;DHT22;8811;52.398;9.728;2022-08-01T14:35:16;28.10;92.10
17387;DHT22;8811;52.398;9.728;2022-08-01T14:37:44;28.80;92.30
17387;DHT22;8811;52.398;9.728;2022-08-01T14:40:14;29.00;90.20
17387;DHT22;8811;52.398;9.728;2022-08-01T14:42:53;28.70;90.30
17387;DHT22;8811;52.398;9.728;2022-08-01T14:45:23;28.20;91.70
17387;DHT22;8811;52.398;9.728;2022-08-01T14:48:01;27.70;91.70
17387;DHT22;8811;52.398;9.728;2022-08-01T14:50:54;27.20;93.10
17387;DHT22;8811;52.398;9.728;2022-08-01T14:53:31;26.90;93.40
17387;DHT22;8811;52.398;9.728;2022-08-01T14:56:07;26.60;93.60
17387;DHT22;8811;52.398;9.728;2022-08-01T14:58:39;26.30;93.40
17387;DHT22;8811;52.398;9.728;2022-08-01T15:01:13;26.10;93.70
17387;DHT22;8811;52.398;9.728;2022-08-01T15:03:41;26.00;92.70
17387;DHT22;8811;52.398;9.728;2022-08-01T15:06:22;26.00;93.90
17387;DHT22;8811;52.398;9.728;2022-08-01T15:08:56;26.00;93.50
17387;DHT22;8811;52.398;9.728;2022-08-01T15:11:29;26.00;93.30
17387;DHT22;8811;52.398;9.728;2022-08-01T15:13:59;25.70;93.50
17387;DHT22;8811;52.398;9.728;2022-08-01T15:16:48;25.70;94.10
17387;DHT22;8811;52.398;9.728;2022-08-01T15:19:20;25.60;94.40
17387;DHT22;8811;52.398;9.728;2022-08-01T15:21:55;25.50;95.10
17387;DHT22;8811;52.398;9.728;2022-08-01T15:24:23;25.50;94.40
17387;DHT22;8811;52.398;9.728;2022-08-01T15:26:51;25.40;94.60
17387;DHT22;8811;52.398;9.728;2022-08-01T15:29:22;25.30;95.10
17387;DHT22;8811;52.398;9.728;2022-08-01T15:31:50;25.20;95.20
17387;DHT22;8811;52.398;9.728;2022-08-01T15:34:22;25.00;95.50
17387;DHT22;8811;52.398;9.728;2022-08-01T15:36:54;24.90;95.40
17387;DHT22;8811;52.398;9.728;2022-08-01T15:39:21;24.90;96.40
17387;DHT22;8811;52.398;9.728;2022-08-01T15:41:50;24.90;95.40
17387;DHT22;8811;52.398;9.728;2022-08-01T15:44:18;24.80;95.10
17387;DHT22;8811;52.398;9.728;2022-08-01T15:46:50;24.80;94.10
17387;DHT22;8811;52.398;9.728;2022-08-01T15:49:23;24.80;95.00
17387;DHT22;8811;52.398;9.728;2022-08-01T15:51:51;24.90;94.10
17387;DHT22;8811;52.398;9.728;2022-08-01T15:54:18;24.90;94.40
17387;DHT22;8811;52.398;9.728;2022-08-01T15:56:46;25.10;94.10
17387;DHT22;8811;52.398;9.728;2022-08-01T15:59:16;25.20;94.90
17387;DHT22;8811;52.398;9.728;2022-08-01T16:01:44;25.30;94.60
17387;DHT22;8811;52.398;9.728;2022-08-01T16:04:16;25.30;94.80
17387;DHT22;8811;52.398;9.728;2022-08-01T16:06:44;25.20;94.90
17387;DHT22;8811;52.398;9.728;2022-08-01T16:09:11;25.20;94.80
17387;DHT22;8811;52.398;9.728;2022-08-01T16:11:42;25.10;94.00
17387;DHT22;8811;52.398;9.728;2022-08-01T16:16:37;24.90;94.70
17387;DHT22;8811;52.398;9.728;2022-08-01T16:21:40;24.70;95.00
17387;DHT22;8811;52.398;9.728;2022-08-01T16:24:10;24.60;95.20
17387;DHT22;8811;52.398;9.728;2022-08-01T16:26:38;24.60;94.70
17387;DHT22;8811;52.398;9.728;2022-08-01T16:29:08;24.60;94.90
17387;DHT22;8811;52.398;9.728;2022-08-01T16:31:37;24.50;95.50
17387;DHT22;8811;52.398;9.728;2022-08-01T16:34:07;24.50;94.80
17387;DHT22;8811;52.398;9.728;2022-08-01T16:36:37;24.50;95.20
17387;DHT22;8811;52.398;9.728;2022-08-01T16:39:18;24.40;94.70
17387;DHT22;8811;52.398;9.728;2022-08-01T16:41:46;24.40;95.10
17387;DHT22;8811;52.398;9.728;2022-08-01T16:44:23;24.30;95.40
17387;DHT22;8811;52.398;9.728;2022-08-01T16:46:50;24.20;95.80
17387;DHT22;8811;52.398;9.728;2022-08-01T16:49:18;24.20;95.90